createdAt,value
2022-11-16T00:01:32.912Z,9.40
2022-11-16T00:04:03.486Z,8.80
2022-11-16T00:06:30.387Z,10.15
2022-11-16T00:09:19.078Z,8.88
2022-11-16T00:11:45.753Z,10.95
2022-11-16T00:14:14.178Z,10.30
2022-11-16T00:16:43.353Z,10.32
2022-11-16T00:19:11.148Z,12.38
2022-11-16T00:21:38.292Z,12.30
2022-11-16T00:24:05.666Z,12.70
2022-11-16T00:26:32.426Z,12.23
2022-11-16T00:28:59.168Z,11.73
2022-11-16T00:31:27.384Z,13.20
2022-11-16T00:33:53.891Z,12.40
2022-11-16T00:36:20.460Z,15.15
2022-11-16T00:38:47.227Z,13.68
2022-11-16T00:41:14.352Z,15.15
2022-11-16T00:43:41.106Z,15.10
2022-11-16T00:46:09.482Z,14.65
2022-11-16T00:48:36.325Z,14.27
2022-11-16T00:51:03.293Z,16.25
2022-11-16T00:53:31.577Z,15.05
2022-11-16T00:55:58.199Z,14.48
2022-11-16T00:58:24.755Z,12.65
2022-11-16T01:00:53.078Z,11.60
2022-11-16T01:03:21.663Z,11.20
2022-11-16T01:05:48.212Z,12.60
2022-11-16T01:08:14.937Z,8.98
2022-11-16T01:10:42.059Z,11.70
2022-11-16T01:13:10.309Z,10.95
2022-11-16T01:15:36.994Z,9.50
2022-11-16T01:18:03.516Z,10.43
2022-11-16T01:20:30.070Z,10.15
2022-11-16T01:22:57.319Z,10.80
2022-11-16T01:25:23.825Z,8.80
2022-11-16T01:27:53.761Z,8.02
2022-11-16T01:30:22.420Z,7.05
2022-11-16T01:32:48.911Z,7.55
2022-11-16T01:35:17.946Z,6.65
2022-11-16T01:37:53.010Z,6.68
2022-11-16T01:40:19.515Z,6.55
2022-11-16T01:42:45.981Z,7.50
2022-11-16T01:45:39.918Z,6.07
2022-11-16T01:48:07.330Z,6.00
2022-11-16T01:50:35.037Z,5.88
2022-11-16T01:53:05.536Z,6.20
2022-11-16T01:55:34.175Z,6.38
2022-11-16T01:58:02.151Z,7.25
2022-11-16T02:00:30.550Z,7.13
2022-11-16T02:02:57.085Z,6.80
2022-11-16T02:05:42.432Z,6.75
2022-11-16T02:09:05.988Z,6.63
2022-11-16T02:11:42.818Z,6.10
2022-11-16T02:14:39.173Z,5.93
2022-11-16T02:17:17.160Z,5.25
2022-11-16T02:20:06.338Z,6.70
2022-11-16T02:22:51.101Z,5.90
2022-11-16T02:25:34.891Z,5.80
2022-11-16T02:28:07.671Z,5.55
2022-11-16T02:30:37.109Z,6.22
2022-11-16T02:33:16.412Z,4.93
2022-11-16T02:35:48.125Z,8.23
2022-11-16T02:38:19.133Z,8.68
2022-11-16T02:40:50.204Z,8.43
2022-11-16T02:43:23.195Z,8.73
2022-11-16T02:45:57.888Z,8.25
2022-11-16T02:48:30.551Z,8.45
2022-11-16T02:53:25.840Z,7.20
2022-11-16T02:55:52.734Z,6.60
2022-11-16T02:58:30.598Z,7.25
2022-11-16T03:01:24.415Z,6.90
2022-11-16T03:03:58.117Z,8.95
2022-11-16T03:06:30.062Z,8.90
2022-11-16T03:09:02.290Z,8.35
2022-11-16T03:11:51.422Z,9.73
2022-11-16T03:14:20.722Z,8.90
2022-11-16T03:16:53.799Z,7.95
2022-11-16T03:19:29.563Z,9.32
2022-11-16T03:24:27.311Z,8.07
2022-11-16T03:27:02.492Z,7.30
2022-11-16T03:29:33.286Z,8.45
2022-11-16T03:32:19.636Z,8.30
2022-11-16T03:34:56.624Z,7.47
2022-11-16T03:37:25.525Z,7.10
2022-11-16T03:39:53.914Z,7.00
2022-11-16T03:42:23.045Z,6.45
2022-11-16T03:44:50.531Z,6.53
2022-11-16T03:47:17.202Z,6.32
2022-11-16T03:49:47.747Z,6.20
2022-11-16T03:52:22.449Z,5.40
2022-11-16T03:54:50.762Z,6.75
2022-11-16T03:57:19.031Z,5.57
2022-11-16T03:59:46.075Z,6.32
2022-11-16T04:02:14.495Z,5.95
2022-11-16T04:04:59.780Z,5.15
2022-11-16T04:07:44.865Z,5.63
2022-11-16T04:10:30.057Z,5.45
2022-11-16T04:13:17.917Z,5.70
2022-11-16T04:16:02.766Z,5.60
2022-11-16T04:18:50.497Z,4.78
2022-11-16T04:21:57.685Z,5.57
2022-11-16T04:27:18.935Z,4.70
2022-11-16T04:29:47.567Z,6.30
2022-11-16T04:32:32.987Z,5.40
2022-11-16T04:35:18.228Z,5.37
2022-11-16T04:37:52.420Z,5.18
2022-11-16T04:40:26.812Z,5.03
2022-11-16T04:43:01.160Z,5.32
2022-11-16T04:45:51.694Z,5.53
2022-11-16T04:48:19.728Z,5.70
2022-11-16T04:50:47.387Z,5.88
2022-11-16T04:53:16.463Z,5.40
2022-11-16T04:55:42.991Z,4.88
2022-11-16T04:58:09.768Z,4.50
2022-11-16T05:00:36.374Z,8.05
2022-11-16T05:03:04.795Z,7.97
2022-11-16T05:05:31.445Z,6.60
2022-11-16T05:07:59.643Z,6.63
2022-11-16T05:10:26.489Z,7.40
2022-11-16T05:12:52.978Z,5.47
2022-11-16T05:15:20.008Z,6.10
2022-11-16T05:17:47.436Z,8.40
2022-11-16T05:20:34.193Z,5.63
2022-11-16T05:23:00.684Z,5.65
2022-11-16T05:25:28.532Z,4.28
2022-11-16T05:27:58.058Z,3.40
2022-11-16T05:30:24.586Z,4.25
2022-11-16T05:32:51.101Z,4.18
2022-11-16T05:35:29.268Z,3.80
2022-11-16T05:37:57.739Z,3.72
2022-11-16T05:40:24.266Z,3.78
2022-11-16T05:42:50.973Z,3.80
2022-11-16T05:45:21.111Z,3.70
2022-11-16T05:47:49.537Z,3.85
2022-11-16T05:50:16.336Z,4.38
2022-11-16T05:52:42.891Z,5.00
2022-11-16T05:55:09.872Z,4.95
2022-11-16T05:57:45.382Z,4.28
2022-11-16T06:00:14.605Z,3.92
2022-11-16T06:02:41.113Z,4.10
2022-11-16T06:05:09.731Z,3.90
2022-11-16T06:07:36.503Z,3.75
2022-11-16T06:10:03.199Z,3.90
2022-11-16T06:12:29.840Z,3.85
2022-11-16T06:14:56.360Z,4.13
2022-11-16T06:17:24.553Z,4.07
2022-11-16T06:19:52.797Z,4.40
2022-11-16T06:22:19.287Z,4.45
2022-11-16T06:24:45.799Z,4.95
2022-11-16T06:27:14.552Z,6.07
2022-11-16T06:29:42.968Z,6.45
2022-11-16T06:32:09.498Z,5.30
2022-11-16T06:34:36.214Z,5.53
2022-11-16T06:37:02.711Z,7.57
2022-11-16T06:39:31.091Z,9.38
2022-11-16T06:41:59.383Z,6.63
2022-11-16T06:44:25.850Z,4.80
2022-11-16T06:46:52.336Z,9.15
2022-11-16T06:49:22.583Z,5.13
2022-11-16T06:51:49.064Z,3.90
2022-11-16T06:54:15.546Z,4.25
2022-11-16T06:56:48.311Z,4.18
2022-11-16T06:59:14.810Z,3.90
2022-11-16T07:01:44.683Z,7.43
2022-11-16T07:04:12.184Z,5.78
2022-11-16T07:06:39.157Z,5.20
2022-11-16T07:09:06.552Z,5.88
2022-11-16T07:11:34.401Z,5.57
2022-11-16T07:14:01.041Z,6.60
2022-11-16T07:16:27.505Z,6.75
2022-11-16T07:18:58.204Z,6.88
2022-11-16T07:21:25.412Z,4.50
2022-11-16T07:23:51.930Z,5.78
2022-11-16T07:26:20.159Z,4.53
2022-11-16T07:28:48.444Z,5.45
2022-11-16T07:31:16.135Z,5.00
2022-11-16T07:33:51.140Z,5.35
2022-11-16T07:36:18.820Z,5.47
2022-11-16T07:38:45.658Z,6.93
2022-11-16T07:41:20.232Z,6.30
2022-11-16T07:43:52.654Z,5.57
2022-11-16T07:46:46.074Z,5.30
2022-11-16T07:49:11.712Z,5.28
2022-11-16T07:51:38.343Z,6.63
2022-11-16T07:54:06.603Z,4.90
2022-11-16T07:56:33.359Z,5.10
2022-11-16T07:58:59.866Z,5.75
2022-11-16T08:01:26.369Z,6.18
2022-11-16T08:04:02.090Z,5.90
2022-11-16T08:06:33.153Z,6.50
2022-11-16T08:09:00.796Z,5.53
2022-11-16T08:11:27.730Z,6.18
2022-11-16T08:13:54.335Z,6.65
2022-11-16T08:16:22.503Z,5.32
2022-11-16T08:18:57.053Z,4.75
2022-11-16T08:21:23.523Z,4.90
2022-11-16T08:23:55.199Z,4.72
2022-11-16T08:26:24.722Z,3.83
2022-11-16T08:28:53.642Z,3.45
2022-11-16T08:31:28.271Z,3.17
2022-11-16T08:33:54.898Z,2.88
2022-11-16T08:36:21.435Z,2.60
2022-11-16T08:38:49.989Z,2.53
2022-11-16T08:41:17.741Z,1.75
2022-11-16T08:43:47.379Z,2.20
2022-11-16T08:46:14.710Z,1.75
2022-11-16T08:48:41.365Z,1.75
2022-11-16T08:51:19.431Z,1.80
2022-11-16T08:53:49.933Z,1.73
2022-11-16T08:56:18.916Z,1.45
2022-11-16T08:58:53.831Z,1.60
2022-11-16T09:01:28.058Z,1.45
2022-11-16T09:03:55.208Z,1.60
2022-11-16T09:06:22.727Z,1.60
2022-11-16T09:08:52.382Z,1.77
2022-11-16T09:11:21.797Z,1.83
2022-11-16T09:13:51.334Z,1.90
2022-11-16T09:16:22.682Z,1.38
2022-11-16T09:18:51.191Z,1.70
2022-11-16T09:21:19.799Z,1.60
2022-11-16T09:23:47.246Z,1.48
2022-11-16T09:26:14.123Z,1.50
2022-11-16T09:28:42.954Z,1.63
2022-11-16T09:31:12.425Z,1.35
2022-11-16T09:33:38.945Z,1.40
2022-11-16T09:36:08.073Z,1.27
2022-11-16T09:41:56.677Z,1.20
2022-11-16T09:44:37.239Z,0.98
2022-11-16T09:47:07.759Z,0.82
2022-11-16T09:49:46.308Z,0.90
2022-11-16T09:52:34.048Z,1.10
2022-11-16T09:55:22.440Z,0.70
2022-11-16T09:57:52.040Z,0.80
2022-11-16T10:00:23.017Z,0.77
2022-11-16T10:03:08.247Z,0.80
2022-11-16T10:05:38.652Z,0.80
2022-11-16T10:08:37.600Z,1.10
2022-11-16T10:11:40.366Z,1.10
2022-11-16T10:14:27.824Z,1.10
2022-11-16T10:17:23.354Z,1.17
2022-11-16T10:20:30.600Z,1.30
2022-11-16T10:23:10.108Z,0.90
2022-11-16T10:25:44.015Z,1.30
2022-11-16T10:28:27.666Z,1.08
2022-11-16T10:31:16.535Z,0.90
2022-11-16T10:33:46.673Z,0.90
2022-11-16T10:36:15.318Z,1.10
2022-11-16T10:38:44.540Z,1.10
2022-11-16T10:41:18.675Z,1.00
2022-11-16T10:43:46.292Z,1.00
2022-11-16T10:46:22.751Z,0.90
2022-11-16T10:49:02.223Z,0.60
2022-11-16T10:51:30.778Z,0.65
2022-11-16T10:53:59.588Z,0.93
2022-11-16T10:56:32.614Z,0.90
2022-11-16T10:59:07.365Z,0.80
2022-11-16T11:01:38.072Z,0.85
2022-11-16T11:04:25.849Z,0.73
2022-11-16T11:07:00.450Z,0.60
2022-11-16T11:09:38.212Z,1.30
2022-11-16T11:12:39.579Z,1.52
2022-11-16T11:15:12.196Z,1.10
2022-11-16T11:17:49.159Z,1.20
2022-11-16T11:20:15.989Z,1.17
2022-11-16T11:22:45.440Z,1.15
2022-11-16T11:25:32.523Z,1.10
2022-11-16T11:28:20.338Z,1.20
2022-11-16T11:31:07.412Z,1.10
2022-11-16T11:33:38.167Z,1.00
2022-11-16T11:36:18.800Z,0.85
2022-11-16T11:39:06.653Z,1.00
2022-11-16T11:41:43.089Z,0.82
2022-11-16T11:44:17.013Z,1.10
2022-11-16T11:49:50.141Z,1.00
2022-11-16T11:52:35.197Z,0.90
2022-11-16T11:55:05.612Z,0.98
2022-11-16T11:57:42.824Z,1.17
2022-11-16T12:00:16.433Z,1.33
2022-11-16T12:03:18.035Z,1.10
2022-11-16T12:05:57.411Z,1.27
2022-11-16T12:09:05.283Z,1.02
2022-11-16T12:12:11.803Z,1.13
2022-11-16T12:15:13.822Z,1.30
2022-11-16T12:18:06.951Z,1.00
2022-11-16T12:20:46.329Z,0.60
2022-11-16T12:23:24.713Z,1.08
2022-11-16T12:26:01.728Z,0.90
2022-11-16T12:28:51.506Z,0.90
2022-11-16T12:31:46.704Z,0.95
2022-11-16T12:34:25.224Z,0.75
2022-11-16T12:37:08.636Z,0.88
2022-11-16T12:39:58.288Z,0.85
2022-11-16T12:42:33.262Z,0.90
2022-11-16T12:45:32.561Z,0.70
2022-11-16T12:48:04.342Z,0.85
2022-11-16T12:50:48.826Z,0.73
2022-11-16T12:53:47.121Z,0.95
2022-11-16T12:56:32.383Z,1.05
2022-11-16T12:59:19.918Z,0.98
2022-11-16T13:02:23.928Z,0.73
2022-11-16T13:05:11.912Z,0.85
2022-11-16T13:07:44.556Z,1.08
2022-11-16T13:10:21.205Z,0.77
2022-11-16T13:13:09.071Z,2.10
2022-11-16T13:15:44.592Z,1.20
2022-11-16T13:18:21.381Z,1.30
2022-11-16T13:20:52.443Z,1.00
2022-11-16T13:23:33.457Z,1.10
2022-11-16T13:26:22.293Z,1.13
2022-11-16T13:29:03.294Z,1.17
2022-11-16T13:31:46.703Z,0.70
2022-11-16T13:34:20.418Z,0.75
2022-11-16T13:36:47.914Z,0.95
2022-11-16T13:39:21.862Z,1.02
2022-11-16T13:42:12.411Z,0.70
2022-11-16T13:44:39.432Z,1.00
2022-11-16T13:47:20.404Z,0.90
2022-11-16T13:49:52.377Z,0.70
2022-11-16T13:52:24.804Z,0.90
2022-11-16T13:54:57.143Z,1.00
2022-11-16T13:57:25.031Z,1.05
2022-11-16T14:00:00.699Z,1.00
2022-11-16T14:02:29.933Z,0.75
2022-11-16T14:05:05.355Z,0.80
2022-11-16T14:07:44.778Z,1.00
2022-11-16T14:10:12.715Z,1.10
2022-11-16T14:12:39.148Z,1.10
2022-11-16T14:15:24.917Z,0.70
2022-11-16T14:18:14.673Z,0.70
2022-11-16T14:21:02.414Z,0.65
2022-11-16T14:23:44.498Z,0.57
2022-11-16T14:26:37.283Z,0.70
2022-11-16T14:29:46.216Z,0.90
2022-11-16T14:35:32.545Z,1.00
2022-11-16T14:38:06.430Z,0.70
2022-11-16T14:40:59.187Z,0.52
2022-11-16T14:43:45.899Z,0.70
2022-11-16T14:46:37.298Z,0.90
2022-11-16T14:49:04.999Z,0.73
2022-11-16T14:51:44.024Z,0.93
2022-11-16T14:54:32.301Z,1.10
2022-11-16T14:57:01.819Z,0.90
2022-11-16T14:59:34.010Z,1.00
2022-11-16T15:02:13.758Z,0.98
2022-11-16T15:04:40.441Z,1.40
2022-11-16T15:07:11.156Z,0.80
2022-11-16T15:09:42.509Z,1.23
2022-11-16T15:12:35.238Z,0.95
2022-11-16T15:15:14.887Z,1.10
2022-11-16T15:17:45.089Z,0.98
2022-11-16T15:20:19.953Z,1.00
2022-11-16T15:22:53.228Z,1.20
2022-11-16T15:25:28.814Z,1.30
2022-11-16T15:27:59.521Z,1.20
2022-11-16T15:30:28.922Z,0.88
2022-11-16T15:32:56.147Z,0.90
2022-11-16T15:35:25.651Z,1.25
2022-11-16T15:38:24.272Z,1.55
2022-11-16T15:41:03.647Z,1.50
2022-11-16T15:43:49.724Z,1.63
2022-11-16T15:46:29.237Z,1.90
2022-11-16T15:48:56.655Z,2.10
2022-11-16T15:51:23.664Z,1.85
2022-11-16T15:53:52.719Z,2.15
2022-11-16T15:56:31.265Z,1.85
2022-11-16T15:59:01.231Z,2.53
2022-11-16T16:01:30.342Z,2.20
2022-11-16T16:04:01.638Z,2.22
2022-11-16T16:06:47.263Z,2.40
2022-11-16T16:09:22.045Z,2.60
2022-11-16T16:11:51.713Z,1.73
2022-11-16T16:14:29.185Z,2.00
2022-11-16T16:17:00.574Z,2.13
2022-11-16T16:19:38.684Z,2.33
2022-11-16T16:22:13.715Z,2.00
2022-11-16T16:24:45.787Z,2.10
2022-11-16T16:27:15.596Z,2.30
2022-11-16T16:29:48.258Z,1.80
2022-11-16T16:32:24.808Z,2.22
2022-11-16T16:35:02.539Z,2.78
2022-11-16T16:37:31.584Z,2.58
2022-11-16T16:39:58.530Z,2.65
2022-11-16T16:42:27.571Z,2.83
2022-11-16T16:44:54.097Z,2.92
2022-11-16T16:47:21.034Z,3.00
2022-11-16T16:49:53.609Z,2.42
2022-11-16T16:52:20.112Z,2.15
2022-11-16T16:54:46.545Z,2.35
2022-11-16T16:57:17.453Z,2.30
2022-11-16T16:59:49.848Z,2.22
2022-11-16T17:02:17.199Z,2.00
2022-11-16T17:04:46.643Z,2.10
2022-11-16T17:07:13.217Z,1.80
2022-11-16T17:09:39.779Z,2.25
2022-11-16T17:12:08.278Z,3.20
2022-11-16T17:14:37.196Z,2.80
2022-11-16T17:17:03.655Z,2.40
2022-11-16T17:19:30.415Z,3.08
2022-11-16T17:21:56.920Z,3.00
2022-11-16T17:24:23.430Z,2.85
2022-11-16T17:27:00.454Z,3.15
2022-11-16T17:29:27.568Z,3.00
2022-11-16T17:31:54.162Z,3.03
2022-11-16T17:34:20.727Z,2.90
2022-11-16T17:36:49.045Z,3.28
2022-11-16T17:39:16.131Z,3.20
2022-11-16T17:41:44.338Z,3.10
2022-11-16T17:44:11.087Z,3.08
2022-11-16T17:46:37.543Z,2.85
2022-11-16T17:49:05.841Z,2.80
2022-11-16T17:51:32.425Z,2.97
2022-11-16T17:53:59.053Z,3.03
2022-11-16T17:56:26.890Z,2.90
2022-11-16T17:58:55.093Z,2.80
2022-11-16T18:01:22.870Z,2.90
2022-11-16T18:03:51.254Z,2.70
2022-11-16T18:06:20.252Z,3.08
2022-11-16T18:08:53.181Z,2.85
2022-11-16T18:11:25.297Z,2.67
2022-11-16T18:13:56.475Z,2.88
2022-11-16T18:16:26.963Z,3.08
2022-11-16T18:18:58.859Z,2.85
2022-11-16T18:21:25.752Z,3.55
2022-11-16T18:23:52.368Z,3.70
2022-11-16T18:26:22.040Z,3.42
2022-11-16T18:28:49.563Z,3.33
2022-11-16T18:31:19.976Z,3.78
2022-11-16T18:33:50.825Z,3.60
2022-11-16T18:36:18.774Z,3.28
2022-11-16T18:38:46.125Z,3.20
2022-11-16T18:41:19.536Z,2.60
2022-11-16T18:43:55.805Z,2.50
2022-11-16T18:46:27.387Z,2.53
2022-11-16T18:48:55.495Z,2.35
2022-11-16T18:51:27.547Z,3.00
2022-11-16T18:53:56.530Z,2.85
2022-11-16T18:56:25.270Z,3.45
2022-11-16T18:58:52.936Z,3.78
2022-11-16T19:01:26.899Z,2.78
2022-11-16T19:03:55.171Z,2.88
2022-11-16T19:06:23.265Z,3.55
2022-11-16T19:08:59.309Z,3.17
2022-11-16T19:11:28.032Z,3.13
2022-11-16T19:13:57.826Z,3.45
2022-11-16T19:16:24.817Z,3.20
2022-11-16T19:18:51.460Z,3.40
2022-11-16T19:21:18.831Z,3.20
2022-11-16T19:23:47.566Z,3.25
2022-11-16T19:26:16.596Z,3.17
2022-11-16T19:28:45.700Z,2.97
2022-11-16T19:31:34.133Z,3.42
2022-11-16T19:34:09.545Z,3.28
2022-11-16T19:36:42.697Z,3.03
2022-11-16T19:39:09.322Z,2.83
2022-11-16T19:41:35.860Z,2.60
2022-11-16T19:44:02.507Z,2.83
2022-11-16T19:46:33.967Z,2.40
2022-11-16T19:49:06.359Z,2.20
2022-11-16T19:51:37.528Z,2.33
2022-11-16T19:54:04.237Z,2.22
2022-11-16T19:56:32.773Z,2.50
2022-11-16T19:58:59.301Z,2.15
2022-11-16T20:01:29.540Z,2.10
2022-11-16T20:03:58.330Z,2.10
2022-11-16T20:06:28.428Z,2.65
2022-11-16T20:08:58.472Z,2.20
2022-11-16T20:11:27.553Z,2.30
2022-11-16T20:13:57.007Z,2.85
2022-11-16T20:16:38.758Z,2.40
2022-11-16T20:19:10.344Z,2.50
2022-11-16T20:21:39.128Z,2.78
2022-11-16T20:24:08.911Z,2.78
2022-11-16T20:26:37.207Z,2.70
2022-11-16T20:29:04.646Z,2.30
2022-11-16T20:31:35.573Z,3.10
2022-11-16T20:34:05.201Z,2.50
2022-11-16T20:36:43.181Z,2.35
2022-11-16T20:39:13.994Z,2.50
2022-11-16T20:41:40.821Z,2.50
2022-11-16T20:44:16.857Z,2.55
2022-11-16T20:46:45.139Z,2.65
2022-11-16T20:49:11.889Z,2.80
2022-11-16T20:51:38.726Z,2.72
2022-11-16T20:54:05.416Z,2.85
2022-11-16T20:56:31.987Z,2.95
2022-11-16T20:59:01.242Z,3.15
2022-11-16T21:01:29.015Z,3.17
2022-11-16T21:03:56.599Z,3.00
2022-11-16T21:06:25.487Z,2.75
2022-11-16T21:08:52.199Z,2.97
2022-11-16T21:11:21.556Z,2.70
2022-11-16T21:14:09.088Z,2.95
2022-11-16T21:16:36.372Z,2.80
2022-11-16T21:19:03.557Z,2.92
2022-11-16T21:21:32.252Z,2.83
2022-11-16T21:23:58.711Z,2.75
2022-11-16T21:26:28.249Z,2.80
2022-11-16T21:28:56.763Z,2.72
2022-11-16T21:31:25.865Z,3.15
2022-11-16T21:33:53.408Z,3.08
2022-11-16T21:36:22.975Z,3.05
2022-11-16T21:38:49.904Z,3.22
2022-11-16T21:41:18.521Z,3.05
2022-11-16T21:43:47.355Z,3.22
2022-11-16T21:46:22.532Z,2.78
2022-11-16T21:48:51.359Z,2.65
2022-11-16T21:51:19.890Z,2.83
2022-11-16T21:53:47.054Z,3.17
2022-11-16T21:56:24.171Z,3.05
2022-11-16T21:58:54.145Z,2.70
2022-11-16T22:01:22.146Z,3.28
2022-11-16T22:04:10.621Z,3.05
2022-11-16T22:06:56.103Z,2.85
2022-11-16T22:09:23.173Z,3.22
2022-11-16T22:11:50.245Z,3.15
2022-11-16T22:14:17.072Z,3.45
2022-11-16T22:16:45.459Z,3.58
2022-11-16T22:19:11.962Z,3.58
2022-11-16T22:21:41.260Z,3.30
2022-11-16T22:24:14.526Z,3.30
2022-11-16T22:26:41.115Z,3.15
2022-11-16T22:29:07.655Z,2.83
2022-11-16T22:31:36.103Z,2.70
2022-11-16T22:34:06.316Z,2.75
2022-11-16T22:36:32.785Z,2.30
2022-11-16T22:38:59.556Z,3.15
2022-11-16T22:41:26.189Z,2.60
2022-11-16T22:43:52.804Z,2.33
2022-11-16T22:46:23.916Z,2.58
2022-11-16T22:48:50.379Z,2.45
2022-11-16T22:51:27.446Z,2.40
2022-11-16T22:53:54.950Z,3.00
2022-11-16T22:56:21.762Z,3.28
2022-11-16T22:58:48.636Z,2.85
2022-11-16T23:01:15.184Z,2.58
2022-11-16T23:03:46.311Z,2.60
2022-11-16T23:06:13.300Z,2.78
2022-11-16T23:08:42.578Z,2.65
2022-11-16T23:11:33.453Z,2.63
2022-11-16T23:14:18.531Z,2.75
2022-11-16T23:16:45.531Z,2.63
2022-11-16T23:19:34.757Z,2.60
2022-11-16T23:22:20.597Z,2.38
2022-11-16T23:25:06.003Z,3.35
2022-11-16T23:27:42.642Z,3.00
2022-11-16T23:30:13.332Z,3.95
2022-11-16T23:32:41.101Z,3.55
2022-11-16T23:35:10.330Z,4.38
2022-11-16T23:37:54.783Z,3.70
2022-11-16T23:40:25.330Z,3.25
2022-11-16T23:43:12.117Z,2.90
2022-11-16T23:45:40.229Z,2.70
2022-11-16T23:48:08.314Z,2.55
2022-11-16T23:50:37.368Z,2.10
2022-11-16T23:53:05.204Z,1.98
2022-11-16T23:55:44.923Z,1.83
2022-11-16T23:58:13.879Z,2.03
